Time;durP1;ratioP1;P1;durP2;ratioP2;P2;SDS_P1;SDS_P2;PMS_P1;PMS_P2;Temp;Humidity;BMP_temperature;BMP_pressure;BME280_temperature;BME280_humidity;BME280_pressure;Samples;Min_cycle;Max_cycle;Signal;HPM_P1;HPM_P2
2021/06/19 00:02:15;;;;;;;1.48;1.38;;;22.70;99.90;;;;;;5095201;28;20193;-95
2021/06/19 00:04:40;;;;;;;2.05;1.45;;;22.60;99.90;;;;;;5096239;28;20174;-79
2021/06/19 00:07:06;;;;;;;1.70;1.60;;;22.50;99.90;;;;;;5095884;28;20216;-96
2021/06/19 00:09:33;;;;;;;4.68;1.80;;;22.50;99.90;;;;;;5095634;28;20780;-79
2021/06/19 00:11:59;;;;;;;2.38;1.90;;;22.40;99.90;;;;;;5095468;28;20221;-83
2021/06/19 00:14:25;;;;;;;2.53;1.90;;;22.50;99.90;;;;;;5096290;28;20165;-78
2021/06/19 00:16:51;;;;;;;3.05;1.77;;;22.40;99.90;;;;;;5098355;28;20170;-79
2021/06/19 00:19:18;;;;;;;4.28;2.25;;;22.30;99.90;;;;;;5100465;28;20184;-91
2021/06/19 00:21:44;;;;;;;1.70;1.60;;;22.40;99.90;;;;;;5105696;28;20201;-89
2021/06/19 00:24:11;;;;;;;2.35;1.65;;;22.40;99.90;;;;;;5109420;28;20154;-85
2021/06/19 00:26:39;;;;;;;2.58;1.60;;;22.30;99.90;;;;;;5088294;28;20178;-89
2021/06/19 00:29:05;;;;;;;6.63;2.08;;;22.20;99.90;;;;;;5104087;28;20158;-96
2021/06/19 00:31:31;;;;;;;2.88;1.83;;;22.10;99.90;;;;;;5106522;28;20228;-87
2021/06/19 00:33:58;;;;;;;1.75;1.65;;;22.00;99.90;;;;;;5110375;28;20185;-91
2021/06/19 00:36:24;;;;;;;5.22;1.45;;;22.00;99.90;;;;;;5110111;28;20185;-94
2021/06/19 00:38:49;;;;;;;10.38;1.80;;;22.10;99.90;;;;;;5108151;28;20172;-95
2021/06/19 00:41:15;;;;;;;2.85;1.60;;;22.20;99.90;;;;;;5110674;28;20253;-92
2021/06/19 00:43:41;;;;;;;3.05;1.67;;;22.30;99.90;;;;;;5108917;28;20228;-95
2021/06/19 00:46:08;;;;;;;6.07;1.80;;;22.30;99.90;;;;;;5109719;28;20158;-89
2021/06/19 00:48:35;;;;;;;2.20;1.58;;;22.40;99.90;;;;;;5108576;28;20192;-95
2021/06/19 00:51:02;;;;;;;2.08;1.83;;;22.30;99.90;;;;;;5107962;28;20208;-94
2021/06/19 00:53:29;;;;;;;3.95;1.40;;;22.20;99.90;;;;;;5109942;28;20169;-96
2021/06/19 00:55:55;;;;;;;1.90;1.65;;;22.10;99.90;;;;;;5109295;28;20184;-91
2021/06/19 00:58:20;;;;;;;2.15;1.42;;;22.20;99.90;;;;;;5108705;28;20166;-96
2021/06/19 01:00:46;;;;;;;2.58;1.67;;;21.90;99.90;;;;;;5109796;28;20169;-92
2021/06/19 01:03:13;;;;;;;1.80;1.70;;;21.60;99.90;;;;;;5107059;28;20185;-86
2021/06/19 01:05:39;;;;;;;2.95;1.67;;;21.70;99.90;;;;;;5107715;28;20181;-87
2021/06/19 01:08:06;;;;;;;2.22;2.03;;;21.50;99.90;;;;;;5107585;28;20162;-86
2021/06/19 01:10:32;;;;;;;4.53;1.98;;;21.40;99.90;;;;;;5106195;28;20209;-93
2021/06/19 01:13:00;;;;;;;2.17;1.83;;;21.50;99.90;;;;;;5107278;28;20185;-92
2021/06/19 01:15:28;;;;;;;4.80;2.00;;;21.30;99.90;;;;;;5089100;28;20169;-82
2021/06/19 01:17:54;;;;;;;2.00;1.80;;;21.20;99.90;;;;;;5099888;28;20174;-79
2021/06/19 01:20:21;;;;;;;2.42;1.73;;;21.30;99.90;;;;;;5095659;28;20287;-80
2021/06/19 01:22:52;;;;;;;2.10;1.80;;;21.40;99.90;;;;;;5107014;28;20557;-91
2021/06/19 01:25:28;;;;;;;1.50;1.40;;;21.30;99.90;;;;;;5110777;28;20180;-91
2021/06/19 01:27:57;;;;;;;1.67;1.58;;;21.30;99.90;;;;;;5112211;28;20215;-89
2021/06/19 01:30:24;;;;;;;3.20;1.92;;;21.40;99.90;;;;;;5113947;28;20194;-83
2021/06/19 01:32:52;;;;;;;1.88;1.77;;;21.40;99.90;;;;;;5116488;28;20208;-82
2021/06/19 01:35:19;;;;;;;3.45;1.85;;;21.20;99.90;;;;;;5112067;28;20206;-79
2021/06/19 01:37:50;;;;;;;2.40;1.80;;;21.20;99.90;;;;;;5093445;28;20158;-79
2021/06/19 01:40:27;;;;;;;2.85;2.42;;;21.10;99.90;;;;;;5093426;28;20177;-79
2021/06/19 01:42:53;;;;;;;1.83;1.73;;;21.00;99.90;;;;;;5092098;28;20200;-79
2021/06/19 01:45:20;;;;;;;2.20;1.92;;;21.00;99.90;;;;;;5094135;28;20223;-79
2021/06/19 01:47:46;;;;;;;3.83;2.45;;;20.90;99.90;;;;;;5096545;28;20158;-78
2021/06/19 01:50:15;;;;;;;4.07;2.45;;;20.90;99.90;;;;;;5107518;28;20205;-79
2021/06/19 01:52:42;;;;;;;4.90;2.38;;;20.90;99.90;;;;;;5123737;28;20186;-80
2021/06/19 01:55:08;;;;;;;4.53;1.92;;;20.90;99.90;;;;;;5099194;28;20166;-78
2021/06/19 01:57:37;;;;;;;2.42;2.22;;;21.00;99.90;;;;;;5093593;28;20162;-79
2021/06/19 02:00:08;;;;;;;2.42;2.30;;;21.00;99.90;;;;;;5095429;28;20665;-81
2021/06/19 02:02:33;;;;;;;2.08;1.95;;;20.90;99.90;;;;;;5092062;28;20185;-79
2021/06/19 02:04:59;;;;;;;3.28;2.50;;;20.80;99.90;;;;;;5092402;28;20264;-78
2021/06/19 02:07:25;;;;;;;2.55;2.35;;;20.90;99.90;;;;;;5092266;28;20622;-79
2021/06/19 02:09:51;;;;;;;3.92;2.20;;;20.80;99.90;;;;;;5092307;28;20202;-79
2021/06/19 02:12:17;;;;;;;2.40;2.20;;;20.70;99.90;;;;;;5093169;28;20200;-79
2021/06/19 02:14:44;;;;;;;5.25;2.45;;;20.70;99.90;;;;;;5092484;28;20162;-79
2021/06/19 02:17:10;;;;;;;2.38;2.17;;;20.90;99.90;;;;;;5110050;28;20200;-79
2021/06/19 02:19:37;;;;;;;2.17;1.98;;;20.90;99.90;;;;;;5094340;28;20173;-79
2021/06/19 02:22:03;;;;;;;2.47;2.03;;;20.80;99.90;;;;;;5094365;28;20648;-80
2021/06/19 02:24:28;;;;;;;2.13;1.80;;;20.60;99.90;;;;;;5095342;28;20240;-79
2021/06/19 02:27:11;;;;;;;7.40;2.22;;;20.60;99.90;;;;;;5094222;28;20299;-79
2021/06/19 02:29:38;;;;;;;4.45;1.98;;;20.70;99.90;;;;;;5092187;28;20280;-79
2021/06/19 02:32:05;;;;;;;3.15;2.90;;;20.60;99.90;;;;;;5095673;28;20286;-82
2021/06/19 02:34:31;;;;;;;3.55;2.35;;;20.70;99.90;;;;;;5098729;28;20161;-83
2021/06/19 02:36:57;;;;;;;2.15;2.00;;;20.70;99.90;;;;;;5093691;28;20173;-79
2021/06/19 02:39:22;;;;;;;1.90;1.80;;;20.80;99.90;;;;;;5091286;28;20234;-79
2021/06/19 02:41:48;;;;;;;2.60;2.40;;;20.70;99.90;;;;;;5090710;28;20193;-78
2021/06/19 02:44:13;;;;;;;3.72;2.53;;;20.90;99.90;;;;;;5092144;28;20185;-79
2021/06/19 02:46:39;;;;;;;2.85;2.58;;;20.90;99.90;;;;;;5093027;28;20173;-79
2021/06/19 02:49:05;;;;;;;2.35;2.15;;;20.90;99.90;;;;;;5092002;28;20685;-79
2021/06/19 02:51:30;;;;;;;2.38;2.28;;;21.00;99.90;;;;;;5092174;28;20696;-79
2021/06/19 02:53:56;;;;;;;6.00;2.33;;;21.00;99.90;;;;;;5091821;28;20166;-79
2021/06/19 02:56:22;;;;;;;2.72;2.42;;;20.90;99.90;;;;;;5092043;28;20525;-79
2021/06/19 02:58:47;;;;;;;3.50;2.60;;;20.80;99.90;;;;;;5092080;28;20158;-79
2021/06/19 03:01:13;;;;;;;2.90;2.70;;;21.00;99.90;;;;;;5090609;28;20717;-82
2021/06/19 03:03:38;;;;;;;3.85;3.55;;;21.00;99.90;;;;;;5090908;28;20187;-79
2021/06/19 03:06:04;;;;;;;3.85;3.17;;;20.90;99.90;;;;;;5090384;28;20180;-79
2021/06/19 03:08:30;;;;;;;3.25;2.95;;;20.80;99.90;;;;;;5095558;28;20173;-79
2021/06/19 03:10:56;;;;;;;3.15;2.88;;;20.70;99.90;;;;;;5095926;28;20287;-79
2021/06/19 03:13:22;;;;;;;8.55;3.45;;;20.70;99.90;;;;;;5095843;28;20170;-82
2021/06/19 03:15:47;;;;;;;3.78;3.47;;;20.50;99.90;;;;;;5096403;28;20173;-82
2021/06/19 03:18:13;;;;;;;8.82;4.15;;;20.40;99.90;;;;;;5097482;28;20172;-81
2021/06/19 03:20:39;;;;;;;4.32;3.92;;;20.40;99.90;;;;;;5098271;28;20166;-86
2021/06/19 03:23:06;;;;;;;4.35;3.55;;;20.40;99.90;;;;;;5100121;28;20552;-83
2021/06/19 03:25:43;;;;;;;4.03;3.72;;;20.40;99.90;;;;;;5098290;28;20621;-80
2021/06/19 03:28:10;;;;;;;4.47;4.05;;;20.50;99.90;;;;;;5096430;28;20162;-80
2021/06/19 03:30:40;;;;;;;5.03;4.25;;;20.60;99.90;;;;;;5096313;28;20732;-79
2021/06/19 03:33:08;;;;;;;5.13;3.97;;;20.50;99.90;;;;;;5096897;28;20182;-79
2021/06/19 03:35:34;;;;;;;4.88;4.13;;;20.50;99.90;;;;;;5096893;28;20162;-80
2021/06/19 03:38:00;;;;;;;4.68;4.18;;;20.60;99.90;;;;;;5095317;28;20166;-81
2021/06/19 03:40:27;;;;;;;8.75;5.90;;;20.60;99.90;;;;;;5097072;28;20858;-86
2021/06/19 03:42:53;;;;;;;7.05;6.35;;;20.50;99.90;;;;;;5099188;28;20239;-81
2021/06/19 03:45:21;;;;;;;6.35;5.95;;;20.40;99.90;;;;;;5100872;28;20169;-85
2021/06/19 03:47:47;;;;;;;7.47;6.85;;;20.20;99.90;;;;;;5100705;28;20256;-82
2021/06/19 03:50:19;;;;;;;7.78;6.80;;;20.20;99.90;;;;;;5096680;28;20193;-78
2021/06/19 03:52:45;;;;;;;7.40;6.85;;;20.20;99.90;;;;;;5095313;28;20187;-79
2021/06/19 03:55:12;;;;;;;7.60;7.00;;;20.20;99.90;;;;;;5094763;28;20166;-81
2021/06/19 03:57:38;;;;;;;8.27;7.47;;;20.20;99.90;;;;;;5096779;28;20162;-79
2021/06/19 04:00:06;;;;;;;7.88;7.15;;;20.20;99.90;;;;;;5096809;28;20177;-79
2021/06/19 04:02:32;;;;;;;8.15;7.25;;;20.20;99.90;;;;;;5096070;28;20201;-79
2021/06/19 04:04:58;;;;;;;8.75;7.32;;;20.20;99.90;;;;;;5095710;28;20744;-85
2021/06/19 04:07:23;;;;;;;14.25;7.68;;;20.20;99.90;;;;;;5104250;28;20193;-79
2021/06/19 04:09:52;;;;;;;7.97;7.20;;;20.20;99.90;;;;;;5095241;28;20248;-80
2021/06/19 04:12:18;;;;;;;8.00;7.30;;;20.20;99.90;;;;;;5093876;28;20190;-78
2021/06/19 04:14:46;;;;;;;8.25;7.45;;;20.10;99.90;;;;;;5095543;28;20291;-81
2021/06/19 04:17:11;;;;;;;8.30;7.60;;;20.10;99.90;;;;;;5095643;28;20166;-79
2021/06/19 04:19:38;;;;;;;8.77;8.07;;;20.20;99.90;;;;;;5102187;28;20169;-79
2021/06/19 04:22:04;;;;;;;12.02;8.02;;;20.50;99.90;;;;;;5100807;28;20186;-79
2021/06/19 04:24:30;;;;;;;7.72;7.13;;;20.70;99.90;;;;;;5094763;28;20162;-79
2021/06/19 04:26:56;;;;;;;8.75;7.85;;;20.50;99.90;;;;;;5095511;28;20514;-80
2021/06/19 04:29:21;;;;;;;9.52;6.75;;;20.40;99.90;;;;;;5095654;28;20188;-79
2021/06/19 04:31:47;;;;;;;7.38;6.82;;;20.50;99.90;;;;;;5095203;28;20231;-78
2021/06/19 04:34:13;;;;;;;7.53;6.93;;;20.50;99.90;;;;;;5096535;28;20158;-79
2021/06/19 04:36:38;;;;;;;6.97;6.43;;;20.40;99.90;;;;;;5094656;28;20162;-79
2021/06/19 04:39:04;;;;;;;6.75;6.18;;;20.30;99.90;;;;;;5097064;28;20225;-79
2021/06/19 04:41:36;;;;;;;7.45;6.70;;;20.40;99.90;;;;;;5094671;28;20196;-78
2021/06/19 04:46:28;;;;;;;6.07;5.53;;;20.70;99.90;;;;;;5094904;28;20166;-79
2021/06/19 04:48:54;;;;;;;6.30;5.70;;;20.70;99.90;;;;;;5095400;28;20162;-79
2021/06/19 04:51:19;;;;;;;8.27;5.55;;;20.70;99.90;;;;;;5094638;28;20205;-79
2021/06/19 04:53:45;;;;;;;5.68;5.28;;;20.70;99.90;;;;;;5093258;28;20528;-80
2021/06/19 04:56:11;;;;;;;6.18;5.68;;;20.50;99.90;;;;;;5096266;28;20183;-79
2021/06/19 04:58:37;;;;;;;6.32;5.30;;;20.40;99.90;;;;;;5094860;28;20158;-84
2021/06/19 05:01:03;;;;;;;10.43;5.38;;;20.50;99.90;;;;;;5093235;28;20215;-79
2021/06/19 05:03:29;;;;;;;12.70;5.70;;;20.50;99.90;;;;;;5093522;28;20181;-79
2021/06/19 05:05:54;;;;;;;7.00;6.47;;;20.50;99.90;;;;;;5093069;28;20166;-79
2021/06/19 05:08:20;;;;;;;8.70;7.00;;;20.50;99.90;;;;;;5093422;28;20235;-79
2021/06/19 05:10:46;;;;;;;7.90;7.22;;;20.30;99.90;;;;;;5093673;28;20212;-90
2021/06/19 05:13:12;;;;;;;7.05;6.55;;;20.00;99.90;;;;;;5092357;28;20231;-82
2021/06/19 05:15:37;;;;;;;8.23;7.53;;;20.00;99.90;;;;;;5092751;28;20166;-80
2021/06/19 05:18:04;;;;;;;8.10;7.50;;;20.00;99.90;;;;;;5092411;28;20178;-80
2021/06/19 05:20:31;;;;;;;7.70;7.15;;;20.10;99.90;;;;;;5094174;28;20169;-83
2021/06/19 05:22:59;;;;;;;17.90;7.28;;;20.10;99.90;;;;;;5094078;28;20177;-81
2021/06/19 05:25:26;;;;;;;7.20;6.60;;;20.10;99.90;;;;;;5093668;28;20227;-81
2021/06/19 05:27:52;;;;;;;7.43;6.80;;;20.10;99.90;;;;;;5091931;28;20166;-80
2021/06/19 05:30:18;;;;;;;7.57;6.97;;;20.20;99.90;;;;;;5091095;28;20296;-80
2021/06/19 05:32:44;;;;;;;7.35;6.85;;;20.30;99.90;;;;;;5092113;28;20225;-80
2021/06/19 05:35:10;;;;;;;7.80;7.15;;;20.40;99.90;;;;;;5108934;28;20185;-81
2021/06/19 05:37:37;;;;;;;7.43;6.75;;;20.30;99.90;;;;;;5091910;28;20188;-79
2021/06/19 05:40:05;;;;;;;6.82;6.32;;;20.40;99.90;;;;;;5093497;28;20200;-80
2021/06/19 05:42:30;;;;;;;6.25;5.65;;;20.60;99.90;;;;;;5091599;28;20205;-81
2021/06/19 05:44:56;;;;;;;6.85;6.32;;;20.60;99.90;;;;;;5093015;28;20261;-80
2021/06/19 05:47:22;;;;;;;6.53;5.93;;;20.60;99.90;;;;;;5091846;28;20178;-79
2021/06/19 05:49:48;;;;;;;7.05;6.13;;;20.70;99.90;;;;;;5093006;28;20738;-79
2021/06/19 05:52:13;;;;;;;7.15;5.22;;;20.90;99.90;;;;;;5091863;28;20208;-80
2021/06/19 05:54:39;;;;;;;6.85;6.07;;;21.00;99.90;;;;;;5091805;28;20194;-81
2021/06/19 05:57:08;;;;;;;4.78;4.40;;;21.00;99.90;;;;;;5092886;28;20162;-79
2021/06/19 05:59:35;;;;;;;4.03;3.63;;;21.20;99.90;;;;;;5091809;28;20169;-80
2021/06/19 06:02:04;;;;;;;6.07;4.28;;;21.20;99.90;;;;;;5091482;28;20225;-79
2021/06/19 06:04:33;;;;;;;4.85;4.32;;;21.20;99.90;;;;;;5092957;28;20256;-80
2021/06/19 06:06:59;;;;;;;4.25;3.95;;;21.00;99.90;;;;;;5091601;28;20166;-81
2021/06/19 06:09:25;;;;;;;4.97;3.42;;;20.80;99.90;;;;;;5092768;28;20176;-80
2021/06/19 06:11:50;;;;;;;5.30;4.35;;;20.90;99.90;;;;;;5091319;28;20206;-80
2021/06/19 06:14:16;;;;;;;5.00;4.57;;;20.80;99.90;;;;;;5091898;28;20269;-80
2021/06/19 06:16:42;;;;;;;4.03;3.70;;;21.00;99.90;;;;;;5091193;28;20629;-79
2021/06/19 06:19:08;;;;;;;4.85;3.65;;;20.90;99.90;;;;;;5092427;28;20249;-79
2021/06/19 06:21:34;;;;;;;4.60;4.20;;;20.90;99.90;;;;;;5092353;28;20181;-80
2021/06/19 06:23:59;;;;;;;5.30;4.00;;;20.90;99.90;;;;;;5092689;28;20180;-79
2021/06/19 06:26:25;;;;;;;5.03;3.83;;;20.80;99.90;;;;;;5091028;28;20162;-79
2021/06/19 06:28:51;;;;;;;6.63;3.40;;;21.00;99.90;;;;;;5091030;28;20260;-79
2021/06/19 06:31:16;;;;;;;5.28;4.38;;;21.20;99.90;;;;;;5091610;28;20550;-81
2021/06/19 06:33:42;;;;;;;3.10;2.90;;;21.20;99.90;;;;;;5092020;28;20172;-80
2021/06/19 06:36:08;;;;;;;3.78;3.47;;;21.20;99.90;;;;;;5094322;28;20161;-80
2021/06/19 06:38:33;;;;;;;5.95;3.50;;;21.20;99.90;;;;;;5093716;28;20158;-80
2021/06/19 06:40:59;;;;;;;3.80;3.40;;;21.30;99.90;;;;;;5091103;28;20222;-81
2021/06/19 06:43:25;;;;;;;5.47;3.80;;;21.50;99.90;;;;;;5095860;28;20686;-81
2021/06/19 06:45:51;;;;;;;4.13;3.33;;;21.60;99.90;;;;;;5098609;28;20162;-81
2021/06/19 06:48:17;;;;;;;7.25;3.40;;;21.80;99.90;;;;;;5111672;28;20157;-80
2021/06/19 06:50:42;;;;;;;3.92;3.63;;;21.70;99.90;;;;;;5116961;28;20223;-79
2021/06/19 06:53:09;;;;;;;3.90;3.05;;;21.80;99.90;;;;;;5115254;28;20253;-79
2021/06/19 06:55:34;;;;;;;3.63;3.33;;;21.80;99.90;;;;;;5097760;28;20197;-80
2021/06/19 06:58:00;;;;;;;3.58;3.28;;;22.00;99.90;;;;;;5095958;28;20189;-79
2021/06/19 07:00:26;;;;;;;3.33;3.10;;;22.10;99.90;;;;;;5096228;28;20172;-80
2021/06/19 07:02:52;;;;;;;3.15;2.80;;;22.20;99.90;;;;;;5094666;28;20185;-80
2021/06/19 07:05:18;;;;;;;3.42;3.13;;;22.50;99.90;;;;;;5094328;28;20204;-80
2021/06/19 07:07:44;;;;;;;3.55;2.92;;;22.50;99.90;;;;;;5095899;28;20170;-78
2021/06/19 07:10:12;;;;;;;9.35;3.42;;;22.50;99.90;;;;;;5094381;28;20213;-79
2021/06/19 07:12:42;;;;;;;4.18;3.42;;;22.30;99.90;;;;;;5095434;28;20338;-80
2021/06/19 07:15:09;;;;;;;3.47;3.17;;;22.10;99.90;;;;;;5094730;28;20177;-79
2021/06/19 07:17:34;;;;;;;3.72;3.33;;;22.20;99.90;;;;;;5095563;28;20178;-84
2021/06/19 07:20:02;;;;;;;4.15;3.50;;;22.10;99.90;;;;;;5095743;28;20162;-80
2021/06/19 07:22:28;;;;;;;7.00;3.45;;;22.00;99.90;;;;;;5094382;28;20654;-82
2021/06/19 07:24:54;;;;;;;3.67;3.38;;;21.90;99.90;;;;;;5095636;28;20194;-80
2021/06/19 07:27:19;;;;;;;3.97;3.70;;;21.90;99.90;;;;;;5094194;28;20660;-80
2021/06/19 07:29:45;;;;;;;5.10;3.67;;;21.80;99.90;;;;;;5095410;28;20189;-81
2021/06/19 07:32:11;;;;;;;3.83;3.47;;;21.80;99.90;;;;;;5094995;28;20548;-80
2021/06/19 07:34:36;;;;;;;3.58;3.28;;;21.90;99.90;;;;;;5093785;28;20176;-80
2021/06/19 07:37:02;;;;;;;3.92;3.00;;;22.30;99.90;;;;;;5095526;28;20165;-81
2021/06/19 07:39:28;;;;;;;4.03;3.72;;;22.70;99.90;;;;;;5095451;28;20188;-80
2021/06/19 07:41:54;;;;;;;6.13;3.22;;;23.10;99.90;;;;;;5094978;28;20665;-80
2021/06/19 07:44:19;;;;;;;5.40;2.65;;;23.20;99.90;;;;;;5093636;28;20166;-80
2021/06/19 07:46:50;;;;;;;3.97;3.35;;;23.20;99.90;;;;;;5095118;28;20169;-80
2021/06/19 07:49:16;;;;;;;3.28;3.08;;;23.10;99.90;;;;;;5093841;28;20169;-80
2021/06/19 07:51:42;;;;;;;4.60;4.20;;;22.80;99.90;;;;;;5094987;28;20205;-80
2021/06/19 07:54:08;;;;;;;3.92;3.63;;;22.70;99.90;;;;;;5094992;28;20165;-80
2021/06/19 07:56:33;;;;;;;8.38;3.72;;;22.60;99.90;;;;;;5093998;28;20197;-81
2021/06/19 07:58:59;;;;;;;3.70;3.38;;;22.50;99.90;;;;;;5094991;28;20166;-82
2021/06/19 08:01:25;;;;;;;3.58;3.08;;;22.50;99.90;;;;;;5095100;28;20246;-81
2021/06/19 08:03:51;;;;;;;14.30;5.03;;;22.60;99.90;;;;;;5094926;28;20162;-81
2021/06/19 08:06:17;;;;;;;4.75;4.25;;;22.50;99.90;;;;;;5095009;28;20239;-81
2021/06/19 08:08:42;;;;;;;4.45;3.97;;;22.50;99.90;;;;;;5093551;28;20176;-81
2021/06/19 08:11:08;;;;;;;5.90;5.22;;;22.30;99.90;;;;;;5094480;28;20280;-81
2021/06/19 08:13:33;;;;;;;7.03;5.13;;;22.00;99.90;;;;;;5093751;28;20189;-82
2021/06/19 08:16:01;;;;;;;8.57;5.00;;;22.00;99.90;;;;;;5094609;28;20747;-81
2021/06/19 08:18:26;;;;;;;9.20;5.47;;;22.10;99.90;;;;;;5093738;28;20172;-81
2021/06/19 08:20:52;;;;;;;5.63;5.15;;;22.10;99.90;;;;;;5094760;28;20170;-81
2021/06/19 08:23:18;;;;;;;6.60;5.75;;;21.80;99.90;;;;;;5092685;28;20599;-80
2021/06/19 08:25:43;;;;;;;12.02;7.40;;;21.70;99.90;;;;;;5092911;28;20521;-81
2021/06/19 08:28:09;;;;;;;8.25;7.40;;;21.80;99.90;;;;;;5094592;28;20196;-83
2021/06/19 08:30:35;;;;;;;9.52;8.73;;;21.80;99.90;;;;;;5093118;28;20209;-82
2021/06/19 08:33:00;;;;;;;9.43;8.38;;;21.70;99.90;;;;;;5094277;28;20239;-80
2021/06/19 08:35:29;;;;;;;9.93;8.98;;;21.70;99.90;;;;;;5094148;28;20166;-86
2021/06/19 08:37:54;;;;;;;15.20;9.10;;;22.00;99.90;;;;;;5094438;28;20716;-82
2021/06/19 08:40:20;;;;;;;9.60;8.73;;;22.20;99.90;;;;;;5094565;28;20205;-82
2021/06/19 08:42:46;;;;;;;9.75;8.85;;;22.10;99.90;;;;;;5092708;28;20211;-81
2021/06/19 08:45:11;;;;;;;9.48;8.00;;;22.10;99.90;;;;;;5092591;28;20169;-80
2021/06/19 08:47:37;;;;;;;10.65;9.55;;;22.30;99.90;;;;;;5094089;28;20166;-84
2021/06/19 08:50:07;;;;;;;14.23;9.13;;;22.40;99.90;;;;;;5093903;28;20197;-88
2021/06/19 08:52:34;;;;;;;10.68;8.20;;;22.40;99.90;;;;;;5094770;28;20545;-91
2021/06/19 08:55:00;;;;;;;14.52;8.43;;;22.40;99.90;;;;;;5095807;28;20166;-91
2021/06/19 08:57:26;;;;;;;9.20;8.32;;;22.50;99.90;;;;;;5096182;28;20178;-81
2021/06/19 08:59:52;;;;;;;10.02;8.80;;;22.80;99.90;;;;;;5095493;28;20641;-80
2021/06/19 09:02:18;;;;;;;11.00;9.82;;;22.70;99.90;;;;;;5093707;28;20186;-80
2021/06/19 09:04:56;;;;;;;13.55;8.93;;;22.60;99.90;;;;;;5093072;28;20265;-81
2021/06/19 09:07:35;;;;;;;9.40;8.45;;;22.40;99.90;;;;;;5092712;28;20252;-82
2021/06/19 09:10:26;;;;;;;12.43;8.75;;;22.60;99.90;;;;;;5092972;28;20232;-80
2021/06/19 09:13:13;;;;;;;11.13;9.25;;;22.50;99.90;;;;;;5085380;28;20205;-82
2021/06/19 09:15:48;;;;;;;13.63;7.97;;;22.50;99.90;;;;;;5094172;28;20193;-81
2021/06/19 09:18:21;;;;;;;9.30;8.40;;;22.50;99.90;;;;;;5092626;28;20172;-82
2021/06/19 09:20:52;;;;;;;9.38;8.27;;;22.50;99.90;;;;;;5094140;28;20174;-88
2021/06/19 09:23:50;;;;;;;9.48;7.72;;;22.40;99.90;;;;;;5095541;28;20223;-86
2021/06/19 09:26:20;;;;;;;9.32;8.43;;;22.20;99.90;;;;;;5100067;28;20178;-85
2021/06/19 09:29:02;;;;;;;9.98;8.93;;;22.10;99.90;;;;;;5107628;28;20169;-85
2021/06/19 09:31:55;;;;;;;9.93;8.93;;;22.20;99.90;;;;;;5117004;28;20241;-85
2021/06/19 09:34:23;;;;;;;8.77;8.05;;;22.10;99.90;;;;;;5107830;28;20177;-84
2021/06/19 09:36:53;;;;;;;14.32;7.90;;;21.90;99.90;;;;;;5105436;28;20178;-85
2021/06/19 09:39:28;;;;;;;15.43;8.80;;;22.10;99.90;;;;;;5110638;28;20196;-86
2021/06/19 09:41:56;;;;;;;8.80;7.57;;;22.40;99.90;;;;;;5093482;28;20186;-86
2021/06/19 09:44:46;;;;;;;8.07;7.32;;;22.70;99.90;;;;;;5093092;28;20183;-85
2021/06/19 09:47:17;;;;;;;8.25;7.35;;;23.00;99.90;;;;;;5092746;28;20537;-85
2021/06/19 09:49:48;;;;;;;11.15;7.85;;;23.00;99.90;;;;;;5093477;28;20639;-87
2021/06/19 09:52:15;;;;;;;8.70;7.95;;;23.10;99.90;;;;;;5093566;28;20220;-86
2021/06/19 09:54:55;;;;;;;8.07;7.13;;;22.90;99.90;;;;;;5076663;28;20173;-84
2021/06/19 09:57:40;;;;;;;8.18;7.47;;;22.70;99.90;;;;;;5092666;28;20169;-85
2021/06/19 10:00:11;;;;;;;10.65;7.35;;;22.70;99.90;;;;;;5092966;28;20239;-89
2021/06/19 10:02:37;;;;;;;8.18;7.40;;;22.70;99.90;;;;;;5095664;28;20231;-90
2021/06/19 10:05:03;;;;;;;7.50;6.90;;;22.60;99.90;;;;;;5094779;28;20166;-87
2021/06/19 10:07:33;;;;;;;7.10;6.45;;;22.80;99.90;;;;;;5093669;28;20180;-90
2021/06/19 10:10:00;;;;;;;7.63;6.70;;;23.00;99.90;;;;;;5094051;28;20189;-94
2021/06/19 10:12:28;;;;;;;11.15;5.65;;;23.30;99.90;;;;;;5093977;28;20205;-94
2021/06/19 10:15:08;;;;;;;7.70;6.53;;;23.20;99.90;;;;;;5094340;28;20245;-91
2021/06/19 10:17:36;;;;;;;8.95;6.60;;;22.90;99.90;;;;;;5095227;28;20555;-96
2021/06/19 10:20:05;;;;;;;7.00;6.32;;;22.30;99.90;;;;;;5093835;28;20158;-95
2021/06/19 10:22:32;;;;;;;7.40;6.70;;;22.50;99.90;;;;;;5094567;28;20196;-95
2021/06/19 10:25:09;;;;;;;8.80;6.88;;;22.60;99.90;;;;;;5094784;28;20181;-94
2021/06/19 10:27:37;;;;;;;10.02;6.95;;;22.70;99.90;;;;;;5088536;28;20174;-96
2021/06/19 10:33:22;;;;;;;6.55;5.97;;;23.10;99.90;;;;;;5094093;28;20194;-88
2021/06/19 10:35:50;;;;;;;5.90;5.40;;;23.00;99.90;;;;;;5106204;28;20249;-92
2021/06/19 10:38:19;;;;;;;11.55;6.32;;;23.10;99.90;;;;;;5093274;28;20184;-90
2021/06/19 10:41:01;;;;;;;9.98;6.40;;;23.50;99.90;;;;;;5093357;28;20219;-83
2021/06/19 10:43:28;;;;;;;7.90;6.40;;;23.90;99.90;;;;;;5094991;28;20174;-92
2021/06/19 10:46:18;;;;;;;9.48;8.55;;;24.20;99.90;;;;;;5093155;28;20154;-92
2021/06/19 10:48:44;;;;;;;11.70;7.85;;;24.10;99.90;;;;;;5094516;28;20205;-94
2021/06/19 10:51:22;;;;;;;6.53;5.32;;;24.30;99.90;;;;;;5093843;28;20221;-95
2021/06/19 10:54:14;;;;;;;8.88;6.00;;;24.50;99.90;;;;;;5094485;28;20166;-90
2021/06/19 10:56:51;;;;;;;6.78;6.05;;;24.60;99.90;;;;;;5095014;28;20172;-92
2021/06/19 10:59:28;;;;;;;9.02;5.90;;;24.70;99.90;;;;;;5094467;28;20597;-90
2021/06/19 11:01:56;;;;;;;7.78;5.32;;;24.60;99.90;;;;;;5093759;28;20559;-90
2021/06/19 11:04:41;;;;;;;6.65;5.95;;;24.60;99.90;;;;;;5095447;28;20169;-89
2021/06/19 11:07:31;;;;;;;9.32;7.40;;;24.70;99.90;;;;;;5094113;28;20179;-87
2021/06/19 11:09:57;;;;;;;10.32;9.32;;;24.70;99.90;;;;;;5095036;28;20767;-95
2021/06/19 11:12:30;;;;;;;8.02;7.05;;;24.60;99.90;;;;;;5095424;28;20230;-95
2021/06/19 11:14:58;;;;;;;7.13;6.60;;;24.60;99.90;;;;;;5095509;28;20170;-93
2021/06/19 11:17:25;;;;;;;9.68;7.05;;;24.50;99.90;;;;;;5093688;28;20170;-92
2021/06/19 11:19:57;;;;;;;7.45;6.40;;;24.60;99.90;;;;;;5093701;28;20166;-93
2021/06/19 11:22:27;;;;;;;6.40;5.70;;;24.70;99.90;;;;;;5095393;28;20188;-92
2021/06/19 11:25:11;;;;;;;9.15;5.43;;;24.60;99.90;;;;;;5093489;28;20168;-78
2021/06/19 11:27:47;;;;;;;7.85;5.90;;;24.70;99.90;;;;;;5092132;28;20532;-78
2021/06/19 11:30:34;;;;;;;5.82;5.32;;;25.00;99.90;;;;;;5095545;28;20673;-78
2021/06/19 11:33:15;;;;;;;10.57;5.43;;;25.10;99.90;;;;;;5095842;28;20239;-80
2021/06/19 11:35:42;;;;;;;5.93;5.35;;;25.60;99.90;;;;;;5096246;28;20165;-79
2021/06/19 11:38:07;;;;;;;5.97;5.47;;;25.90;99.90;;;;;;5096713;28;20177;-79
2021/06/19 11:40:36;;;;;;;13.02;5.22;;;25.80;99.90;;;;;;5096117;28;20170;-79
2021/06/19 11:43:06;;;;;;;5.13;4.63;;;25.90;99.90;;;;;;5096261;28;20625;-80
2021/06/19 11:45:33;;;;;;;5.60;5.10;;;25.60;99.90;;;;;;5111744;28;20199;-80
2021/06/19 11:48:10;;;;;;;6.38;5.00;;;25.60;99.90;;;;;;5094528;28;20537;-80
2021/06/19 11:50:38;;;;;;;5.75;5.03;;;25.60;99.90;;;;;;5095531;28;20201;-80
2021/06/19 11:53:27;;;;;;;7.03;5.50;;;25.40;99.90;;;;;;5095455;28;20170;-81
2021/06/19 11:56:12;;;;;;;5.63;5.13;;;25.00;99.90;;;;;;5095998;28;20170;-80
2021/06/19 11:58:57;;;;;;;6.00;5.60;;;24.50;99.90;;;;;;5095585;28;20235;-81
2021/06/19 12:01:38;;;;;;;6.20;5.55;;;24.20;99.90;;;;;;5095442;28;20194;-79
2021/06/19 12:04:06;;;;;;;6.50;5.93;;;23.80;99.90;;;;;;5093577;28;20165;-79
2021/06/19 12:06:40;;;;;;;4.85;4.40;;;24.00;99.90;;;;;;5096340;28;20177;-80
2021/06/19 12:09:08;;;;;;;7.85;4.75;;;24.50;99.90;;;;;;5096246;28;20182;-80
2021/06/19 12:11:39;;;;;;;9.05;5.25;;;24.70;99.90;;;;;;5104058;28;20273;-83
2021/06/19 12:14:18;;;;;;;5.75;5.25;;;24.80;99.90;;;;;;5102214;28;20166;-83
2021/06/19 12:16:45;;;;;;;10.95;5.25;;;25.00;99.90;;;;;;5119588;28;20200;-84
2021/06/19 12:19:11;;;;;;;5.60;5.10;;;25.10;99.90;;;;;;5118723;28;20256;-86
2021/06/19 12:21:38;;;;;;;5.97;4.97;;;25.10;99.90;;;;;;5104821;28;20182;-81
2021/06/19 12:24:19;;;;;;;5.22;4.82;;;25.00;99.90;;;;;;5094718;28;20174;-86
2021/06/19 12:26:59;;;;;;;5.72;5.32;;;25.30;99.90;;;;;;5093882;28;20177;-83
2021/06/19 12:29:41;;;;;;;4.53;4.13;;;25.60;99.90;;;;;;5093618;28;20182;-91
2021/06/19 12:32:28;;;;;;;4.65;4.25;;;25.70;99.90;;;;;;5094102;28;20220;-83
2021/06/19 12:34:58;;;;;;;8.27;5.22;;;25.30;99.90;;;;;;5093228;28;20176;-82
2021/06/19 12:37:32;;;;;;;5.53;5.07;;;25.10;99.90;;;;;;5093306;28;20230;-82
2021/06/19 12:39:59;;;;;;;5.60;4.57;;;24.90;99.90;;;;;;5092939;28;20541;-84
2021/06/19 12:42:32;;;;;;;5.03;4.57;;;24.80;99.90;;;;;;5092933;28;20196;-83
2021/06/19 12:45:09;;;;;;;12.95;9.13;;;25.10;99.90;;;;;;5092890;28;20181;-85
2021/06/19 12:47:39;;;;;;;6.85;6.35;;;25.30;99.90;;;;;;5094710;28;20226;-82
2021/06/19 12:50:05;;;;;;;6.15;5.60;;;25.60;99.90;;;;;;5092465;28;20197;-81
2021/06/19 12:52:31;;;;;;;5.47;5.07;;;25.70;99.90;;;;;;5109268;28;20193;-82
2021/06/19 12:55:11;;;;;;;5.43;5.03;;;25.90;99.90;;;;;;5093821;28;20166;-81
2021/06/19 12:57:37;;;;;;;5.80;5.07;;;26.10;99.90;;;;;;5093730;28;20158;-81
2021/06/19 13:00:09;;;;;;;5.05;4.55;;;26.10;99.90;;;;;;5092164;28;20185;-81